createdAt,value
2022-09-22T00:00:43.645Z,4.30
2022-09-22T00:03:09.906Z,4.07
2022-09-22T00:05:36.118Z,3.90
2022-09-22T00:08:02.347Z,4.38
2022-09-22T00:10:28.526Z,4.93
2022-09-22T00:12:55.791Z,4.32
2022-09-22T00:15:22.089Z,4.65
2022-09-22T00:17:48.754Z,4.32
2022-09-22T00:20:14.941Z,4.85
2022-09-22T00:22:41.229Z,5.10
2022-09-22T00:25:08.594Z,5.43
2022-09-22T00:27:34.808Z,4.43
2022-09-22T00:30:01.016Z,4.57
2022-09-22T00:32:27.570Z,5.05
2022-09-22T00:34:53.780Z,5.32
2022-09-22T00:37:19.935Z,5.07
2022-09-22T00:39:46.169Z,4.63
2022-09-22T00:42:12.686Z,4.88
2022-09-22T00:44:40.344Z,4.80
2022-09-22T00:47:36.008Z,5.00
2022-09-22T00:50:19.370Z,5.55
2022-09-22T00:52:51.968Z,5.18
2022-09-22T00:55:28.742Z,5.60
2022-09-22T00:57:55.430Z,5.80
2022-09-22T01:00:21.721Z,5.85
2022-09-22T01:02:49.014Z,6.28
2022-09-22T01:05:15.631Z,5.85
2022-09-22T01:07:42.980Z,5.82
2022-09-22T01:10:11.155Z,5.30
2022-09-22T01:12:39.706Z,5.55
2022-09-22T01:15:15.022Z,5.57
2022-09-22T01:17:51.257Z,6.07
2022-09-22T01:20:44.032Z,5.65
2022-09-22T01:23:48.839Z,5.45
2022-09-22T01:26:29.233Z,5.63
2022-09-22T01:29:01.154Z,6.43
2022-09-22T01:31:33.311Z,6.43
2022-09-22T01:34:17.229Z,6.05
2022-09-22T01:36:55.593Z,6.18
2022-09-22T01:39:25.937Z,6.53
2022-09-22T01:42:00.860Z,7.00
2022-09-22T01:44:31.166Z,6.60
2022-09-22T01:47:20.495Z,6.57
2022-09-22T01:49:49.504Z,7.00
2022-09-22T01:52:17.296Z,6.65
2022-09-22T01:54:45.628Z,7.15
2022-09-22T01:57:21.413Z,6.32
2022-09-22T01:59:55.592Z,8.10
2022-09-22T02:02:25.643Z,7.07
2022-09-22T02:04:54.741Z,6.60
2022-09-22T02:07:24.644Z,7.30
2022-09-22T02:09:51.490Z,7.75
2022-09-22T02:12:18.793Z,8.30
2022-09-22T02:14:49.239Z,6.55
2022-09-22T02:17:15.780Z,7.50
2022-09-22T02:19:42.372Z,8.40
2022-09-22T02:22:09.718Z,8.60
2022-09-22T02:24:40.238Z,8.55
2022-09-22T02:27:25.522Z,9.35
2022-09-22T02:29:54.845Z,8.55
2022-09-22T02:32:21.484Z,8.65
2022-09-22T02:34:48.021Z,8.38
2022-09-22T02:37:20.054Z,8.43
2022-09-22T02:40:01.653Z,8.57
2022-09-22T02:42:30.410Z,8.20
2022-09-22T02:44:56.573Z,8.30
2022-09-22T02:47:32.477Z,8.20
2022-09-22T02:49:59.396Z,7.85
2022-09-22T02:52:25.636Z,7.80
2022-09-22T02:54:53.155Z,7.28
2022-09-22T02:57:20.305Z,7.70
2022-09-22T02:59:46.639Z,7.85
2022-09-22T03:02:12.876Z,7.85
2022-09-22T03:04:41.283Z,7.38
2022-09-22T03:07:07.518Z,8.05
2022-09-22T03:09:33.842Z,7.43
2022-09-22T03:12:00.227Z,7.85
2022-09-22T03:14:26.402Z,7.07
2022-09-22T03:16:52.608Z,7.35
2022-09-22T03:19:18.780Z,8.13
2022-09-22T03:21:44.972Z,7.38
2022-09-22T03:24:11.176Z,7.22
2022-09-22T03:26:37.415Z,7.43
2022-09-22T03:29:03.631Z,7.25
2022-09-22T03:31:29.845Z,7.15
2022-09-22T03:33:56.069Z,7.78
2022-09-22T03:36:23.214Z,7.90
2022-09-22T03:38:49.479Z,7.25
2022-09-22T03:41:15.680Z,7.40
2022-09-22T03:43:41.873Z,7.53
2022-09-22T03:46:08.105Z,7.75
2022-09-22T03:48:34.371Z,7.47
2022-09-22T03:51:00.669Z,7.40
2022-09-22T03:53:27.365Z,6.90
2022-09-22T03:56:04.512Z,7.40
2022-09-22T03:58:30.719Z,7.75
2022-09-22T04:00:56.949Z,7.57
2022-09-22T04:03:24.281Z,7.90
2022-09-22T04:05:51.056Z,7.43
2022-09-22T04:08:17.780Z,7.63
2022-09-22T04:10:45.209Z,7.90
2022-09-22T04:13:11.907Z,7.93
2022-09-22T04:15:38.089Z,7.78
2022-09-22T04:18:04.388Z,8.25
2022-09-22T04:20:30.588Z,7.57
2022-09-22T04:22:56.817Z,8.30
2022-09-22T04:25:23.161Z,7.68
2022-09-22T04:27:49.703Z,7.80
2022-09-22T04:30:15.970Z,7.65
2022-09-22T04:32:42.241Z,7.70
2022-09-22T04:35:08.532Z,8.55
2022-09-22T04:37:35.092Z,8.18
2022-09-22T04:40:01.417Z,8.35
2022-09-22T04:42:27.633Z,9.20
2022-09-22T04:44:57.058Z,11.15
2022-09-22T04:47:23.245Z,13.32
2022-09-22T04:49:49.837Z,13.20
2022-09-22T04:52:16.024Z,14.85
2022-09-22T04:54:42.251Z,14.85
2022-09-22T04:57:09.140Z,15.45
2022-09-22T04:59:35.468Z,15.20
2022-09-22T05:02:01.676Z,15.55
2022-09-22T05:04:28.601Z,15.27
2022-09-22T05:06:55.205Z,14.52
2022-09-22T05:09:21.744Z,13.90
2022-09-22T05:11:51.017Z,14.05
2022-09-22T05:14:19.736Z,13.57
2022-09-22T05:16:49.293Z,14.45
2022-09-22T05:19:15.569Z,13.60
2022-09-22T05:21:41.738Z,12.52
2022-09-22T05:24:07.922Z,13.70
2022-09-22T05:26:34.224Z,12.70
2022-09-22T05:29:00.454Z,13.05
2022-09-22T05:31:26.770Z,12.55
2022-09-22T05:33:53.206Z,12.48
2022-09-22T05:36:19.366Z,12.82
2022-09-22T05:38:45.568Z,13.23
2022-09-22T05:41:11.732Z,12.90
2022-09-22T05:43:38.072Z,14.35
2022-09-22T05:46:04.427Z,13.98
2022-09-22T05:48:31.561Z,12.63
2022-09-22T05:50:57.972Z,14.45
2022-09-22T05:53:24.187Z,13.75
2022-09-22T05:55:50.346Z,13.90
2022-09-22T05:58:16.531Z,13.85
2022-09-22T06:00:42.794Z,13.30
2022-09-22T06:03:09.200Z,15.05
2022-09-22T06:05:38.460Z,15.13
2022-09-22T06:08:06.364Z,14.25
2022-09-22T06:10:34.358Z,14.32
2022-09-22T06:13:01.812Z,14.20
2022-09-22T06:15:28.672Z,12.52
2022-09-22T06:17:56.077Z,13.85
2022-09-22T06:20:24.828Z,14.60
2022-09-22T06:22:51.083Z,14.07
2022-09-22T06:25:17.284Z,13.93
2022-09-22T06:27:43.979Z,12.40
2022-09-22T06:30:11.166Z,12.80
2022-09-22T06:32:39.278Z,14.55
2022-09-22T06:35:06.452Z,13.80
2022-09-22T06:37:33.471Z,12.35
2022-09-22T06:39:59.722Z,10.65
2022-09-22T06:42:25.904Z,10.35
2022-09-22T06:44:53.353Z,9.18
2022-09-22T06:47:19.523Z,9.45
2022-09-22T06:49:46.611Z,7.93
2022-09-22T06:52:13.288Z,6.80
2022-09-22T06:54:41.994Z,6.05
2022-09-22T06:57:08.687Z,5.53
2022-09-22T06:59:37.677Z,5.75
2022-09-22T07:02:07.196Z,5.68
2022-09-22T07:04:34.556Z,5.70
2022-09-22T07:07:02.530Z,6.38
2022-09-22T07:09:28.760Z,4.97
2022-09-22T07:11:55.494Z,5.47
2022-09-22T07:14:22.219Z,5.50
2022-09-22T07:16:48.494Z,5.03
2022-09-22T07:19:15.116Z,4.93
2022-09-22T07:21:41.287Z,4.72
2022-09-22T07:24:08.620Z,4.15
2022-09-22T07:26:36.432Z,4.72
2022-09-22T07:29:04.564Z,4.80
2022-09-22T07:31:32.003Z,4.97
2022-09-22T07:34:01.591Z,4.85
2022-09-22T07:36:29.044Z,5.00
2022-09-22T07:38:57.319Z,4.95
2022-09-22T07:41:24.938Z,4.90
2022-09-22T07:43:52.494Z,4.72
2022-09-22T07:46:19.140Z,4.63
2022-09-22T07:48:47.166Z,5.18
2022-09-22T07:51:19.616Z,5.30
2022-09-22T07:53:47.202Z,5.05
2022-09-22T07:56:15.572Z,5.53
2022-09-22T07:58:45.785Z,4.68
2022-09-22T08:01:12.231Z,4.95
2022-09-22T08:03:39.681Z,4.88
2022-09-22T08:06:12.319Z,4.97
2022-09-22T08:08:42.575Z,4.93
2022-09-22T08:11:15.709Z,5.05
2022-09-22T08:13:43.621Z,4.63
2022-09-22T08:16:11.438Z,4.40
2022-09-22T08:18:39.480Z,5.65
2022-09-22T08:21:07.773Z,4.28
2022-09-22T08:23:34.268Z,4.10
2022-09-22T08:26:07.559Z,4.65
2022-09-22T08:28:34.702Z,4.60
2022-09-22T08:31:01.391Z,3.90
2022-09-22T08:33:29.516Z,3.70
2022-09-22T08:35:56.592Z,4.85
2022-09-22T08:38:23.229Z,4.07
2022-09-22T08:40:58.335Z,4.15
2022-09-22T08:43:24.569Z,3.28
2022-09-22T08:45:50.915Z,4.18
2022-09-22T08:48:38.905Z,3.78
2022-09-22T08:51:26.281Z,4.03
2022-09-22T08:53:52.744Z,3.17
2022-09-22T08:56:37.701Z,3.63
2022-09-22T08:59:09.009Z,3.38
2022-09-22T09:01:37.931Z,3.60
2022-09-22T09:04:30.909Z,3.55
2022-09-22T09:07:04.135Z,3.53
2022-09-22T09:09:30.337Z,3.78
2022-09-22T09:12:05.902Z,3.47
2022-09-22T09:14:41.448Z,4.10
2022-09-22T09:17:18.231Z,3.80
2022-09-22T09:19:50.287Z,4.10
2022-09-22T09:22:25.057Z,3.58
2022-09-22T09:27:46.923Z,3.70
2022-09-22T09:30:20.185Z,4.50
2022-09-22T09:32:47.242Z,4.72
2022-09-22T09:35:14.985Z,4.25
2022-09-22T09:37:44.856Z,4.20
2022-09-22T09:40:15.133Z,4.10
2022-09-22T09:42:42.915Z,4.80
2022-09-22T09:45:13.378Z,4.90
2022-09-22T09:47:59.544Z,4.85
2022-09-22T09:50:31.799Z,5.32
2022-09-22T09:52:59.553Z,5.45
2022-09-22T09:55:27.029Z,4.85
2022-09-22T09:58:01.617Z,4.50
2022-09-22T10:00:31.587Z,4.03
2022-09-22T10:03:21.903Z,4.32
2022-09-22T10:05:58.929Z,4.00
2022-09-22T10:08:25.131Z,5.15
2022-09-22T10:10:55.106Z,4.75
2022-09-22T10:13:37.558Z,4.35
2022-09-22T10:16:18.424Z,4.65
2022-09-22T10:18:44.734Z,4.75
2022-09-22T10:21:15.287Z,4.07
2022-09-22T10:23:42.880Z,3.17
2022-09-22T10:26:13.732Z,3.63
2022-09-22T10:28:39.958Z,4.07
2022-09-22T10:31:06.242Z,3.88
2022-09-22T10:33:33.162Z,3.80
2022-09-22T10:36:12.047Z,3.63
2022-09-22T10:38:43.004Z,3.95
2022-09-22T10:41:13.535Z,3.58
2022-09-22T10:43:43.842Z,2.75
2022-09-22T10:46:22.854Z,3.22
2022-09-22T10:48:59.384Z,2.60
2022-09-22T10:51:47.265Z,2.78
2022-09-22T10:54:41.749Z,2.63
2022-09-22T10:57:26.814Z,2.38
2022-09-22T11:00:02.854Z,2.42
2022-09-22T11:02:38.258Z,2.63
2022-09-22T11:05:04.455Z,2.90
2022-09-22T11:08:04.150Z,2.53
2022-09-22T11:11:12.627Z,2.60
2022-09-22T11:14:07.289Z,3.05
2022-09-22T11:16:40.998Z,3.25
2022-09-22T11:19:13.195Z,2.53
2022-09-22T11:21:39.461Z,2.50
2022-09-22T11:24:14.813Z,2.35
2022-09-22T11:26:40.961Z,2.20
2022-09-22T11:29:20.281Z,2.47
2022-09-22T11:31:49.685Z,1.98
2022-09-22T11:34:24.825Z,1.77
2022-09-22T11:36:51.879Z,1.70
2022-09-22T11:39:27.641Z,2.42
2022-09-22T11:42:01.800Z,2.00
2022-09-22T11:44:28.513Z,1.80
2022-09-22T11:46:57.543Z,1.92
2022-09-22T11:49:33.355Z,2.33
2022-09-22T11:52:02.602Z,1.95
2022-09-22T11:54:28.743Z,1.60
2022-09-22T11:56:59.059Z,1.85
2022-09-22T11:59:37.071Z,1.90
2022-09-22T12:02:08.940Z,1.73
2022-09-22T12:04:37.614Z,1.60
2022-09-22T12:07:07.396Z,1.50
2022-09-22T12:09:36.513Z,1.70
2022-09-22T12:12:04.139Z,1.55
2022-09-22T12:14:30.440Z,1.30
2022-09-22T12:17:00.026Z,1.35
2022-09-22T12:19:38.649Z,1.30
2022-09-22T12:22:11.064Z,1.10
2022-09-22T12:24:37.307Z,1.25
2022-09-22T12:27:11.131Z,0.88
2022-09-22T12:29:38.741Z,0.98
2022-09-22T12:32:05.310Z,1.10
2022-09-22T12:34:33.482Z,1.65
2022-09-22T12:37:09.358Z,1.15
2022-09-22T12:39:40.026Z,1.40
2022-09-22T12:42:07.967Z,1.10
2022-09-22T12:44:50.009Z,1.27
2022-09-22T12:47:28.529Z,1.30
2022-09-22T12:49:58.895Z,1.33
2022-09-22T12:52:40.159Z,1.50
2022-09-22T12:55:30.008Z,1.30
2022-09-22T12:57:57.534Z,1.17
2022-09-22T13:00:26.799Z,1.38
2022-09-22T13:02:56.765Z,1.15
2022-09-22T13:05:25.962Z,1.20
2022-09-22T13:07:55.889Z,1.33
2022-09-22T13:10:22.391Z,1.27
2022-09-22T13:13:06.683Z,2.08
2022-09-22T13:15:49.301Z,1.15
2022-09-22T13:18:27.732Z,1.40
2022-09-22T13:20:54.128Z,1.20
2022-09-22T13:23:20.355Z,1.10
2022-09-22T13:25:46.918Z,1.05
2022-09-22T13:28:14.838Z,1.00
2022-09-22T13:30:41.965Z,1.13
2022-09-22T13:33:18.928Z,1.15
2022-09-22T13:35:45.415Z,1.10
2022-09-22T13:38:13.363Z,1.20
2022-09-22T13:40:44.610Z,1.08
2022-09-22T13:43:12.194Z,1.40
2022-09-22T13:45:39.289Z,1.00
2022-09-22T13:48:10.364Z,1.20
2022-09-22T13:50:41.317Z,1.10
2022-09-22T13:53:07.624Z,0.98
2022-09-22T13:55:35.470Z,1.23
2022-09-22T13:58:03.026Z,1.05
2022-09-22T14:00:55.144Z,1.42
2022-09-22T14:03:23.123Z,1.20
2022-09-22T14:05:53.856Z,1.27
2022-09-22T14:08:23.073Z,1.00
2022-09-22T14:10:49.589Z,1.23
2022-09-22T14:13:34.500Z,1.10
2022-09-22T14:16:06.260Z,1.05
2022-09-22T14:18:32.623Z,1.00
2022-09-22T14:20:59.013Z,1.08
2022-09-22T14:23:29.593Z,1.10
2022-09-22T14:25:56.873Z,1.27
2022-09-22T14:28:27.727Z,1.08
2022-09-22T14:30:54.003Z,1.08
2022-09-22T14:33:25.398Z,1.00
2022-09-22T14:35:59.282Z,0.90
2022-09-22T14:38:26.483Z,1.13
2022-09-22T14:40:54.112Z,0.88
2022-09-22T14:43:23.756Z,1.30
2022-09-22T14:46:07.492Z,1.13
2022-09-22T14:48:39.073Z,1.08
2022-09-22T14:51:07.391Z,1.30
2022-09-22T14:54:02.589Z,1.02
2022-09-22T14:56:32.263Z,1.10
2022-09-22T14:59:00.551Z,0.98
2022-09-22T15:01:48.306Z,1.10
2022-09-22T15:04:24.934Z,1.00
2022-09-22T15:06:51.566Z,0.70
2022-09-22T15:09:23.884Z,0.80
2022-09-22T15:11:51.376Z,0.95
2022-09-22T15:14:34.900Z,1.08
2022-09-22T15:17:21.429Z,0.68
2022-09-22T15:19:51.088Z,0.95
2022-09-22T15:22:17.410Z,1.10
2022-09-22T15:24:43.641Z,1.13
2022-09-22T15:27:17.534Z,0.88
2022-09-22T15:29:43.993Z,1.10
2022-09-22T15:32:10.925Z,0.77
2022-09-22T15:34:42.598Z,0.95
2022-09-22T15:37:19.245Z,1.08
2022-09-22T15:39:45.433Z,1.10
2022-09-22T15:42:11.813Z,1.05
2022-09-22T15:44:37.989Z,0.90
2022-09-22T15:47:04.583Z,1.02
2022-09-22T15:49:32.621Z,0.70
2022-09-22T15:52:04.178Z,0.80
2022-09-22T15:54:31.143Z,1.30
2022-09-22T15:56:59.391Z,1.10
2022-09-22T15:59:27.872Z,1.20
2022-09-22T16:01:59.370Z,1.10
2022-09-22T16:04:32.247Z,0.93
2022-09-22T16:07:02.497Z,1.00
2022-09-22T16:09:28.725Z,1.15
2022-09-22T16:11:55.731Z,1.13
2022-09-22T16:14:23.072Z,1.00
2022-09-22T16:16:49.576Z,1.23
2022-09-22T16:19:16.181Z,0.90
2022-09-22T16:21:50.219Z,1.20
2022-09-22T16:24:16.600Z,1.10
2022-09-22T16:26:42.784Z,1.15
2022-09-22T16:29:09.040Z,1.40
2022-09-22T16:31:36.047Z,1.25
2022-09-22T16:34:03.425Z,1.20
2022-09-22T16:36:31.431Z,1.10
2022-09-22T16:38:57.648Z,1.25
2022-09-22T16:41:33.982Z,1.20
2022-09-22T16:44:00.779Z,0.90
2022-09-22T16:46:28.540Z,1.17
2022-09-22T16:49:00.445Z,1.50
2022-09-22T16:51:27.935Z,1.02
2022-09-22T16:53:54.200Z,1.15
2022-09-22T16:56:21.242Z,1.10
2022-09-22T16:58:47.530Z,1.40
2022-09-22T17:01:19.396Z,1.10
2022-09-22T17:03:47.045Z,1.20
2022-09-22T17:06:14.572Z,1.38
2022-09-22T17:08:46.834Z,1.40
2022-09-22T17:11:13.871Z,1.33
2022-09-22T17:13:43.144Z,1.20
2022-09-22T17:16:27.423Z,1.25
2022-09-22T17:18:54.589Z,1.15
2022-09-22T17:21:24.186Z,1.20
2022-09-22T17:23:51.476Z,1.40
2022-09-22T17:26:18.841Z,1.10
2022-09-22T17:28:45.182Z,1.27
2022-09-22T17:31:11.547Z,1.35
2022-09-22T17:33:51.862Z,1.50
2022-09-22T17:36:26.635Z,1.60
2022-09-22T17:38:54.146Z,1.50
2022-09-22T17:41:21.582Z,1.80
2022-09-22T17:43:55.502Z,1.65
2022-09-22T17:46:21.922Z,1.35
2022-09-22T17:49:07.297Z,1.30
2022-09-22T17:51:59.379Z,1.50
2022-09-22T17:54:47.297Z,1.77
2022-09-22T17:57:23.801Z,1.83
2022-09-22T17:59:50.544Z,1.40
2022-09-22T18:02:17.704Z,1.75
2022-09-22T18:04:44.502Z,2.10
2022-09-22T18:07:11.688Z,1.95
2022-09-22T18:09:39.054Z,1.80
2022-09-22T18:12:07.034Z,2.28
2022-09-22T18:14:39.082Z,1.73
2022-09-22T18:17:07.796Z,2.05
2022-09-22T18:19:37.647Z,1.75
2022-09-22T18:22:06.165Z,2.22
2022-09-22T18:24:32.887Z,1.88
2022-09-22T18:26:59.404Z,2.78
2022-09-22T18:29:26.022Z,2.47
2022-09-22T18:31:54.610Z,2.10
2022-09-22T18:34:21.355Z,2.40
2022-09-22T18:36:47.590Z,2.28
2022-09-22T18:39:13.808Z,2.25
2022-09-22T18:41:41.128Z,2.70
2022-09-22T18:44:09.080Z,1.98
2022-09-22T18:46:35.953Z,2.67
2022-09-22T18:49:05.976Z,2.38
2022-09-22T18:51:33.374Z,2.20
2022-09-22T18:54:06.387Z,2.80
2022-09-22T18:56:33.344Z,3.05
2022-09-22T18:58:59.544Z,3.10
2022-09-22T19:01:25.905Z,2.97
2022-09-22T19:03:52.166Z,3.25
2022-09-22T19:06:19.006Z,3.22
2022-09-22T19:08:45.267Z,3.05
2022-09-22T19:11:11.615Z,3.17
2022-09-22T19:13:39.415Z,3.45
2022-09-22T19:16:06.196Z,3.30
2022-09-22T19:18:32.502Z,2.83
2022-09-22T19:21:03.818Z,3.13
2022-09-22T19:23:32.438Z,3.63
2022-09-22T19:25:59.490Z,3.30
2022-09-22T19:28:25.806Z,3.40
2022-09-22T19:30:52.097Z,2.50
2022-09-22T19:33:18.338Z,2.72
2022-09-22T19:35:44.551Z,2.97
2022-09-22T19:38:10.807Z,2.95
2022-09-22T19:40:37.080Z,2.63
2022-09-22T19:43:03.561Z,2.85
2022-09-22T19:45:30.290Z,3.17
2022-09-22T19:47:57.999Z,2.80
2022-09-22T19:50:25.214Z,2.60
2022-09-22T19:52:52.287Z,2.90
2022-09-22T19:55:21.164Z,3.13
2022-09-22T19:57:48.499Z,3.08
2022-09-22T20:00:25.513Z,2.78
2022-09-22T20:02:58.005Z,3.03
2022-09-22T20:05:25.813Z,3.45
2022-09-22T20:07:51.981Z,2.88
2022-09-22T20:10:19.139Z,3.08
2022-09-22T20:12:45.408Z,3.05
2022-09-22T20:15:15.005Z,3.50
2022-09-22T20:17:45.951Z,3.03
2022-09-22T20:20:13.234Z,4.20
2022-09-22T20:22:41.288Z,3.50
2022-09-22T20:25:15.283Z,3.30
2022-09-22T20:27:41.499Z,3.53
2022-09-22T20:30:08.793Z,3.28
2022-09-22T20:32:34.972Z,3.30
2022-09-22T20:35:01.575Z,3.03
2022-09-22T20:37:27.786Z,3.15
2022-09-22T20:39:53.993Z,2.97
2022-09-22T20:42:20.275Z,3.22
2022-09-22T20:44:46.807Z,3.53
2022-09-22T20:47:14.021Z,3.33
2022-09-22T20:49:41.733Z,3.00
2022-09-22T20:52:08.265Z,2.97
2022-09-22T20:54:34.506Z,2.60
2022-09-22T20:57:00.716Z,3.13
2022-09-22T20:59:26.930Z,2.55
2022-09-22T21:01:53.394Z,2.53
2022-09-22T21:04:19.599Z,2.50
2022-09-22T21:06:45.823Z,2.50
2022-09-22T21:09:30.633Z,2.60
2022-09-22T21:11:56.875Z,2.40
2022-09-22T21:14:23.067Z,2.42
2022-09-22T21:16:51.095Z,1.90
2022-09-22T21:19:17.576Z,2.50
2022-09-22T21:21:43.804Z,2.03
2022-09-22T21:24:10.941Z,1.88
2022-09-22T21:26:37.384Z,2.15
2022-09-22T21:29:04.738Z,2.72
2022-09-22T21:31:30.995Z,1.80
2022-09-22T21:33:57.297Z,2.17
2022-09-22T21:36:23.854Z,1.63
2022-09-22T21:38:54.462Z,2.10
2022-09-22T21:41:21.875Z,2.13
2022-09-22T21:43:49.858Z,2.13
2022-09-22T21:46:20.024Z,1.77
2022-09-22T21:48:46.568Z,2.20
2022-09-22T21:51:16.865Z,2.40
2022-09-22T21:53:46.078Z,1.50
2022-09-22T21:56:13.427Z,2.05
2022-09-22T21:58:41.353Z,2.75
2022-09-22T22:01:07.626Z,3.38
2022-09-22T22:03:35.038Z,2.22
2022-09-22T22:06:02.432Z,2.47
2022-09-22T22:08:28.748Z,2.58
2022-09-22T22:11:04.361Z,2.78
2022-09-22T22:13:32.045Z,2.17
2022-09-22T22:15:58.766Z,2.53
2022-09-22T22:18:25.150Z,2.42
2022-09-22T22:21:01.453Z,2.67
2022-09-22T22:23:28.763Z,2.95
2022-09-22T22:25:57.429Z,3.55
2022-09-22T22:28:23.799Z,2.30
2022-09-22T22:30:50.003Z,2.75
2022-09-22T22:33:16.204Z,2.83
2022-09-22T22:35:53.309Z,2.63
2022-09-22T22:38:20.004Z,2.67
2022-09-22T22:40:46.688Z,2.50
2022-09-22T22:43:14.232Z,2.88
2022-09-22T22:45:47.198Z,2.20
2022-09-22T22:48:15.021Z,2.58
2022-09-22T22:50:41.860Z,2.47
2022-09-22T22:53:10.105Z,2.70
2022-09-22T22:55:36.755Z,2.53
2022-09-22T22:58:03.956Z,2.72
2022-09-22T23:00:31.304Z,2.60
2022-09-22T23:02:57.485Z,2.53
2022-09-22T23:05:23.863Z,2.63
2022-09-22T23:07:51.590Z,2.33
2022-09-22T23:10:18.875Z,2.47
2022-09-22T23:12:45.089Z,2.63
2022-09-22T23:15:11.307Z,2.30
2022-09-22T23:17:37.728Z,2.80
2022-09-22T23:20:05.240Z,2.40
2022-09-22T23:22:31.534Z,2.67
2022-09-22T23:24:57.940Z,2.58
2022-09-22T23:27:24.502Z,2.50
2022-09-22T23:29:50.880Z,3.17
2022-09-22T23:32:17.396Z,2.97
2022-09-22T23:34:43.591Z,2.67
2022-09-22T23:37:09.788Z,2.28
2022-09-22T23:39:36.050Z,2.42
2022-09-22T23:42:02.240Z,2.92
2022-09-22T23:44:28.470Z,2.67
2022-09-22T23:46:54.654Z,3.30
2022-09-22T23:49:20.897Z,3.10
2022-09-22T23:51:47.110Z,2.75
2022-09-22T23:54:16.036Z,3.00
2022-09-22T23:56:42.371Z,3.10
2022-09-22T23:59:08.629Z,2.97
